Winchester, Wisconsin
Current Conditions -  °F | °C
As of 9:45 AM on Sunday 21 Dec 2014 (Local Time) from KATW Reporting Station
Haze Haze  
Wind Chill: 23°   Ceiling: 600
Heat Index: 32°   Visibility: 2mi
Dew Point: 30°   Wind: 13mph
Humidity: 93%   Direction: 160°SSE
Pressure: 30.1"   Gusts: NA
Location:  44.2002°N, 88.6941°W
Report Text: KATW 211545Z 16011KT 2SM BR OVC006 00/M01 A3010
Loading
Personal Weather Stations






























Interactive Weather Map New forecast layout! Learn more

10-Day Weather Forecast

Advertisements
Track Severe Weather on mobile